createdAt,value
2024-03-05T00:02:16.089Z,8.99
2024-03-05T00:04:45.310Z,9.00
2024-03-05T00:07:12.169Z,8.97
2024-03-05T00:09:39.781Z,8.95
2024-03-05T00:12:06.741Z,8.95
2024-03-05T00:14:33.640Z,8.96
2024-03-05T00:17:02.136Z,8.97
2024-03-05T00:19:30.427Z,8.98
2024-03-05T00:21:57.178Z,8.97
2024-03-05T00:24:48.989Z,8.96
2024-03-05T00:27:15.848Z,8.93
2024-03-05T00:32:37.881Z,8.94
2024-03-05T00:35:07.171Z,8.92
2024-03-05T00:37:40.257Z,8.92
2024-03-05T00:40:10.261Z,8.93
2024-03-05T00:42:39.101Z,8.93
2024-03-05T00:45:31.141Z,8.87
2024-03-05T00:47:58.244Z,8.88
2024-03-05T00:50:25.132Z,8.87
2024-03-05T00:52:52.044Z,8.85
2024-03-05T00:55:19.060Z,8.83
2024-03-05T00:57:46.733Z,8.91
2024-03-05T01:00:14.737Z,8.93
2024-03-05T01:02:42.744Z,8.93
2024-03-05T01:05:10.256Z,8.90
2024-03-05T01:07:41.116Z,8.88
2024-03-05T01:10:09.585Z,8.90
2024-03-05T01:12:37.166Z,8.92
2024-03-05T01:15:06.035Z,8.93
2024-03-05T01:17:34.068Z,8.90
2024-03-05T01:20:01.082Z,8.90
2024-03-05T01:22:28.053Z,8.91
2024-03-05T01:24:54.971Z,8.90
2024-03-05T01:27:21.807Z,8.91
2024-03-05T01:29:49.386Z,8.90
2024-03-05T01:32:16.325Z,8.91
2024-03-05T01:34:43.805Z,8.91
2024-03-05T01:37:12.021Z,8.87
2024-03-05T01:39:39.118Z,8.86
2024-03-05T01:42:07.595Z,8.83
2024-03-05T01:44:34.915Z,8.87
2024-03-05T01:47:03.554Z,8.86
2024-03-05T01:49:31.274Z,8.81
2024-03-05T01:52:01.150Z,8.79
2024-03-05T01:54:29.120Z,8.76
2024-03-05T01:57:01.553Z,8.78
2024-03-05T01:59:28.827Z,8.78
2024-03-05T02:01:56.032Z,8.78
2024-03-05T02:04:25.564Z,8.77
2024-03-05T02:06:54.777Z,8.76
2024-03-05T02:09:25.274Z,8.76
2024-03-05T02:11:59.157Z,8.78
2024-03-05T02:14:28.164Z,8.78
2024-03-05T02:16:59.949Z,8.79
2024-03-05T02:19:27.848Z,8.82
2024-03-05T02:22:03.508Z,8.83
2024-03-05T02:24:31.654Z,8.83
2024-03-05T02:27:01.914Z,8.85
2024-03-05T02:29:35.100Z,8.86
2024-03-05T02:32:02.169Z,8.85
2024-03-05T02:34:29.110Z,8.88
2024-03-05T02:36:56.064Z,8.87
2024-03-05T02:39:22.864Z,8.86
2024-03-05T02:41:50.160Z,8.83
2024-03-05T02:44:16.980Z,8.82
2024-03-05T02:46:44.615Z,8.81
2024-03-05T02:49:13.162Z,8.83
2024-03-05T02:51:40.481Z,8.84
2024-03-05T02:54:07.349Z,8.85
2024-03-05T02:56:34.169Z,8.85
2024-03-05T02:59:01.100Z,8.84
2024-03-05T03:01:28.785Z,8.85
2024-03-05T03:03:55.643Z,8.82
2024-03-05T03:06:22.575Z,8.80
2024-03-05T03:08:49.445Z,8.77
2024-03-05T03:11:17.302Z,8.74
2024-03-05T03:13:45.800Z,8.77
2024-03-05T03:16:12.771Z,8.77
2024-03-05T03:18:40.203Z,8.76
2024-03-05T03:21:06.963Z,8.78
2024-03-05T03:23:35.154Z,8.80
2024-03-05T03:26:02.166Z,8.77
2024-03-05T03:28:29.099Z,8.80
2024-03-05T03:30:56.180Z,8.81
2024-03-05T03:33:23.653Z,8.80
2024-03-05T03:35:51.134Z,8.81
2024-03-05T03:38:18.608Z,8.83
2024-03-05T03:40:45.368Z,8.82
2024-03-05T03:43:12.375Z,8.83
2024-03-05T03:45:39.143Z,8.83
2024-03-05T03:48:06.661Z,8.82
2024-03-05T03:50:34.221Z,8.81
2024-03-05T03:53:01.669Z,8.78
2024-03-05T03:55:29.621Z,8.75
2024-03-05T03:57:58.116Z,8.73
2024-03-05T04:00:24.922Z,8.78
2024-03-05T04:02:51.806Z,8.79
2024-03-05T04:05:18.929Z,8.78
2024-03-05T04:07:46.846Z,8.80
2024-03-05T04:10:14.956Z,8.83
2024-03-05T04:12:42.766Z,8.84
2024-03-05T04:15:10.061Z,8.83
2024-03-05T04:17:37.299Z,8.79
2024-03-05T04:20:05.207Z,8.77
2024-03-05T04:22:32.834Z,8.72
2024-03-05T04:25:00.132Z,8.67
2024-03-05T04:27:29.520Z,8.71
2024-03-05T04:29:59.952Z,8.72
2024-03-05T04:32:27.152Z,8.72
2024-03-05T04:34:55.157Z,8.75
2024-03-05T04:37:22.892Z,8.76
2024-03-05T04:39:49.799Z,8.72
2024-03-05T04:42:18.011Z,8.69
2024-03-05T04:44:45.061Z,8.68
2024-03-05T04:47:12.174Z,8.68
2024-03-05T04:49:39.377Z,8.68
2024-03-05T04:52:06.978Z,8.64
2024-03-05T04:54:34.271Z,8.63
2024-03-05T04:57:01.828Z,8.61
2024-03-05T04:59:29.572Z,8.53
2024-03-05T05:01:56.571Z,8.55
2024-03-05T05:04:30.429Z,8.56
2024-03-05T05:06:57.838Z,8.55
2024-03-05T05:09:24.796Z,8.53
2024-03-05T05:11:51.912Z,8.52
2024-03-05T05:14:18.795Z,8.51
2024-03-05T05:16:47.103Z,8.46
2024-03-05T05:19:14.117Z,8.44
2024-03-05T05:21:45.279Z,8.41
2024-03-05T05:24:13.190Z,8.40
2024-03-05T05:26:41.306Z,8.35
2024-03-05T05:29:14.107Z,8.33
2024-03-05T05:31:45.694Z,8.33
2024-03-05T05:34:12.569Z,8.34
2024-03-05T05:37:06.436Z,8.36
2024-03-05T05:39:34.831Z,8.38
2024-03-05T05:42:02.108Z,8.41
2024-03-05T05:44:29.093Z,8.41
2024-03-05T05:46:56.164Z,8.39
2024-03-05T05:49:25.021Z,8.38
2024-03-05T05:51:52.109Z,8.38
2024-03-05T05:54:22.607Z,8.36
2024-03-05T05:56:50.597Z,8.34
2024-03-05T05:59:17.860Z,8.35
2024-03-05T06:01:45.515Z,8.37
2024-03-05T06:04:12.977Z,8.40
2024-03-05T06:06:40.116Z,8.41
2024-03-05T06:09:09.380Z,8.42
2024-03-05T06:11:39.866Z,8.47
2024-03-05T06:14:08.377Z,8.50
2024-03-05T06:16:36.436Z,8.55
2024-03-05T06:19:03.406Z,8.58
2024-03-05T06:21:31.572Z,8.62
2024-03-05T06:23:58.449Z,8.67
2024-03-05T06:26:25.381Z,8.74
2024-03-05T06:28:52.628Z,8.80
2024-03-05T06:31:19.946Z,8.88
2024-03-05T06:33:46.848Z,8.93
2024-03-05T06:36:14.081Z,8.96
2024-03-05T06:38:41.155Z,9.02
2024-03-05T06:41:11.625Z,9.09
2024-03-05T06:43:39.200Z,9.15
2024-03-05T06:46:06.487Z,9.21
2024-03-05T06:48:33.445Z,9.26
2024-03-05T06:51:01.027Z,9.29
2024-03-05T06:53:29.473Z,9.39
2024-03-05T06:55:56.965Z,9.41
2024-03-05T06:58:25.000Z,9.45
2024-03-05T07:00:52.029Z,9.47
2024-03-05T07:03:19.164Z,9.49
2024-03-05T07:05:47.017Z,9.49
2024-03-05T07:08:14.041Z,9.50
2024-03-05T07:10:41.070Z,9.48
2024-03-05T07:13:08.382Z,9.46
2024-03-05T07:15:35.255Z,9.48
2024-03-05T07:18:03.515Z,9.54
2024-03-05T07:20:30.489Z,9.57
2024-03-05T07:22:57.737Z,9.58
2024-03-05T07:25:24.986Z,9.58
2024-03-05T07:27:51.992Z,9.57
2024-03-05T07:30:20.358Z,9.56
2024-03-05T07:32:49.025Z,9.55
2024-03-05T07:35:17.077Z,9.59
2024-03-05T07:37:45.469Z,9.57
2024-03-05T07:40:15.939Z,9.57
2024-03-05T07:42:46.937Z,9.54
2024-03-05T07:45:14.151Z,9.53
2024-03-05T07:47:41.378Z,9.54
2024-03-05T07:50:09.230Z,9.52
2024-03-05T07:52:36.300Z,9.54
2024-03-05T07:55:03.552Z,9.61
2024-03-05T07:57:30.560Z,9.68
2024-03-05T07:59:57.443Z,9.75
2024-03-05T08:02:27.271Z,9.77
2024-03-05T08:04:55.060Z,9.79
2024-03-05T08:10:16.684Z,9.85
2024-03-05T08:12:48.219Z,9.89
2024-03-05T08:15:17.130Z,9.91
2024-03-05T08:17:46.866Z,9.94
2024-03-05T08:23:09.666Z,10.01
2024-03-05T08:25:36.661Z,10.04
2024-03-05T08:28:03.719Z,10.06
2024-03-05T08:30:31.663Z,10.08
2024-03-05T08:33:00.161Z,10.11
2024-03-05T08:35:27.527Z,10.14
2024-03-05T08:37:55.116Z,10.16
2024-03-05T08:40:22.626Z,10.21
2024-03-05T08:42:51.370Z,10.26
2024-03-05T08:45:20.258Z,10.31
2024-03-05T08:47:52.597Z,10.39
2024-03-05T08:50:20.665Z,10.43
2024-03-05T08:52:47.992Z,10.44
2024-03-05T08:55:19.549Z,10.47
2024-03-05T08:57:48.822Z,10.52
2024-03-05T09:00:27.749Z,10.54
2024-03-05T09:03:04.305Z,10.57
2024-03-05T09:05:31.328Z,10.61
2024-03-05T09:07:58.376Z,10.65
2024-03-05T09:10:26.135Z,10.67
2024-03-05T09:12:53.020Z,10.67
2024-03-05T09:15:21.038Z,10.69
2024-03-05T09:17:48.056Z,10.70
2024-03-05T09:20:15.194Z,10.72
2024-03-05T09:22:47.204Z,10.72
2024-03-05T09:25:16.135Z,10.73
2024-03-05T09:27:44.152Z,10.72
2024-03-05T09:30:11.658Z,10.73
2024-03-05T09:32:39.094Z,10.76
2024-03-05T09:35:06.187Z,10.76
2024-03-05T09:37:34.102Z,10.75
2024-03-05T09:40:01.299Z,10.75
2024-03-05T09:42:28.244Z,10.75
2024-03-05T09:44:55.390Z,10.76
2024-03-05T09:47:23.813Z,10.76
2024-03-05T09:49:51.998Z,10.77
2024-03-05T09:52:19.555Z,10.81
2024-03-05T09:54:46.658Z,10.79
2024-03-05T09:57:13.721Z,10.82
2024-03-05T09:59:42.165Z,10.83
2024-03-05T10:02:12.139Z,10.84
2024-03-05T10:04:42.356Z,10.81
2024-03-05T10:07:10.024Z,10.85
2024-03-05T10:09:36.955Z,10.83
2024-03-05T10:12:05.658Z,10.83
2024-03-05T10:14:32.616Z,10.85
2024-03-05T10:17:00.992Z,10.84
2024-03-05T10:19:28.125Z,10.82
2024-03-05T10:22:08.849Z,10.79
2024-03-05T10:24:37.815Z,10.77
2024-03-05T10:27:05.038Z,10.77
2024-03-05T10:29:36.199Z,10.76
2024-03-05T10:32:06.735Z,10.79
2024-03-05T10:34:33.926Z,10.81
2024-03-05T10:37:05.314Z,10.78
2024-03-05T10:39:34.246Z,10.82
2024-03-05T10:42:01.328Z,10.80
2024-03-05T10:44:30.620Z,10.84
2024-03-05T10:46:57.752Z,10.89
2024-03-05T10:49:25.839Z,10.87
2024-03-05T10:51:55.022Z,10.89
2024-03-05T10:54:22.636Z,10.91
2024-03-05T10:56:50.737Z,10.93
2024-03-05T10:59:18.268Z,10.93
2024-03-05T11:01:46.374Z,10.95
2024-03-05T11:04:21.931Z,10.96
2024-03-05T11:06:52.589Z,10.97
2024-03-05T11:09:21.017Z,11.00
2024-03-05T11:11:54.017Z,11.03
2024-03-05T11:14:21.395Z,11.03
2024-03-05T11:16:56.628Z,11.07
2024-03-05T11:19:23.785Z,11.13
2024-03-05T11:21:51.253Z,11.16
2024-03-05T11:24:18.139Z,11.18
2024-03-05T11:26:45.841Z,11.22
2024-03-05T11:29:18.739Z,11.26
2024-03-05T11:31:49.517Z,11.34
2024-03-05T11:34:18.259Z,11.42
2024-03-05T11:36:46.279Z,11.47
2024-03-05T11:39:14.608Z,11.56
2024-03-05T11:41:50.829Z,11.59
2024-03-05T11:44:32.985Z,11.64
2024-03-05T11:47:01.812Z,11.69
2024-03-05T11:49:28.766Z,11.73
2024-03-05T11:51:55.740Z,11.75
2024-03-05T11:54:25.302Z,11.74
2024-03-05T11:57:01.712Z,11.74
2024-03-05T11:59:42.001Z,11.77
2024-03-05T12:02:10.487Z,11.79
2024-03-05T12:04:43.322Z,11.87
2024-03-05T12:07:14.991Z,11.96
2024-03-05T12:09:42.343Z,12.06
2024-03-05T12:12:11.574Z,12.10
2024-03-05T12:14:39.466Z,12.13
2024-03-05T12:17:07.704Z,12.13
2024-03-05T12:19:35.271Z,12.14
2024-03-05T12:22:02.347Z,12.14
2024-03-05T12:24:31.550Z,12.12
2024-03-05T12:26:59.842Z,12.11
2024-03-05T12:29:34.972Z,12.09
2024-03-05T12:32:07.775Z,12.11
2024-03-05T12:34:36.694Z,12.08
2024-03-05T12:37:06.615Z,12.10
2024-03-05T12:39:33.511Z,12.05
2024-03-05T12:42:03.743Z,12.06
2024-03-05T12:44:32.001Z,12.16
2024-03-05T12:50:13.133Z,12.30
2024-03-05T12:52:41.824Z,12.37
2024-03-05T12:55:14.080Z,12.42
2024-03-05T12:57:49.293Z,12.46
2024-03-05T13:00:16.722Z,12.49
2024-03-05T13:02:43.816Z,12.52
2024-03-05T13:05:11.273Z,12.48
2024-03-05T13:07:40.027Z,12.48
2024-03-05T13:10:10.178Z,12.51
2024-03-05T13:12:38.056Z,12.58
2024-03-05T13:15:29.822Z,12.65
2024-03-05T13:18:02.889Z,12.72
2024-03-05T13:20:29.865Z,12.79
2024-03-05T13:22:57.037Z,12.84
2024-03-05T13:25:25.290Z,12.90
2024-03-05T13:27:53.490Z,12.96
2024-03-05T13:30:21.054Z,13.03
2024-03-05T13:32:49.999Z,13.06
2024-03-05T13:35:18.487Z,13.09
2024-03-05T13:37:46.491Z,13.13
2024-03-05T13:40:15.838Z,13.17
2024-03-05T13:42:42.732Z,13.18
2024-03-05T13:45:10.843Z,13.19
2024-03-05T13:47:38.156Z,13.15
2024-03-05T13:50:13.947Z,13.13
2024-03-05T13:52:43.606Z,13.09
2024-03-05T13:58:05.227Z,12.92
2024-03-05T14:00:32.127Z,12.87
2024-03-05T14:03:00.809Z,12.79
2024-03-05T14:05:27.716Z,12.74
2024-03-05T14:07:55.699Z,12.70
2024-03-05T14:10:22.685Z,12.63
2024-03-05T14:12:49.855Z,12.59
2024-03-05T14:15:16.887Z,12.56
2024-03-05T14:17:44.162Z,12.52
2024-03-05T14:20:11.866Z,12.49
2024-03-05T14:22:42.529Z,12.45
2024-03-05T14:25:11.072Z,12.42
2024-03-05T14:27:37.969Z,12.37
2024-03-05T14:30:05.949Z,12.32
2024-03-05T14:32:32.822Z,12.29
2024-03-05T14:35:01.948Z,12.28
2024-03-05T14:37:28.934Z,12.27
2024-03-05T14:39:59.713Z,12.25
2024-03-05T14:42:26.868Z,12.21
2024-03-05T14:44:53.784Z,12.18
2024-03-05T14:47:20.971Z,12.15
2024-03-05T14:49:48.039Z,12.14
2024-03-05T14:52:15.039Z,12.12
2024-03-05T14:54:42.484Z,12.13
2024-03-05T14:57:09.449Z,12.11
2024-03-05T14:59:36.390Z,12.08
2024-03-05T15:02:03.421Z,12.06
2024-03-05T15:04:30.432Z,12.03
2024-03-05T15:06:57.399Z,12.03
2024-03-05T15:09:24.267Z,12.01
2024-03-05T15:11:51.393Z,12.02
2024-03-05T15:14:18.532Z,11.98
2024-03-05T15:16:45.712Z,11.99
2024-03-05T15:19:13.355Z,11.97
2024-03-05T15:21:40.239Z,11.96
2024-03-05T15:24:07.878Z,11.94
2024-03-05T15:26:34.945Z,11.96
2024-03-05T15:29:01.973Z,11.94
2024-03-05T15:31:29.087Z,11.93
2024-03-05T15:33:56.909Z,11.92
2024-03-05T15:36:23.863Z,11.91
2024-03-05T15:38:50.870Z,11.89
2024-03-05T15:41:17.779Z,11.88
2024-03-05T15:43:45.010Z,11.85
2024-03-05T15:46:11.888Z,11.83
2024-03-05T15:48:39.008Z,11.81
2024-03-05T15:51:06.028Z,11.79
2024-03-05T15:53:33.666Z,11.79
2024-03-05T15:56:00.670Z,11.78
2024-03-05T15:58:31.152Z,11.72
2024-03-05T16:00:58.261Z,11.71
2024-03-05T16:03:25.194Z,11.66
2024-03-05T16:06:00.342Z,11.61
2024-03-05T16:08:33.200Z,11.56
2024-03-05T16:11:00.762Z,11.49
2024-03-05T16:13:29.311Z,11.46
2024-03-05T16:15:57.089Z,11.46
2024-03-05T16:18:24.100Z,11.45
2024-03-05T16:20:51.139Z,11.40
2024-03-05T16:23:17.982Z,11.38
2024-03-05T16:25:45.953Z,11.35
2024-03-05T16:28:12.949Z,11.34
2024-03-05T16:30:39.934Z,11.32
2024-03-05T16:33:07.580Z,11.29
2024-03-05T16:35:34.774Z,11.29
2024-03-05T16:38:03.319Z,11.29
2024-03-05T16:40:30.526Z,11.23
2024-03-05T16:43:00.787Z,11.21
2024-03-05T16:45:28.883Z,11.15
2024-03-05T16:47:59.693Z,11.13
2024-03-05T16:50:28.339Z,11.08
2024-03-05T16:52:57.986Z,11.03
2024-03-05T16:55:26.033Z,11.03
2024-03-05T16:57:54.534Z,10.96
2024-03-05T17:00:47.130Z,10.90
2024-03-05T17:03:14.385Z,10.88
2024-03-05T17:05:42.884Z,10.84
2024-03-05T17:08:09.845Z,10.84
2024-03-05T17:10:37.421Z,10.79
2024-03-05T17:13:34.644Z,10.76
2024-03-05T17:16:01.953Z,10.76
2024-03-05T17:18:29.188Z,10.77
2024-03-05T17:20:56.634Z,10.76
2024-03-05T17:23:26.242Z,10.74
2024-03-05T17:25:55.011Z,10.69
2024-03-05T17:28:21.982Z,10.66
2024-03-05T17:30:50.022Z,10.66
2024-03-05T17:33:17.670Z,10.63
2024-03-05T17:35:53.411Z,10.61
2024-03-05T17:38:20.305Z,10.57
2024-03-05T17:40:47.391Z,10.55
2024-03-05T17:43:14.186Z,10.55
2024-03-05T17:45:42.316Z,10.53
2024-03-05T17:48:09.545Z,10.48
2024-03-05T17:50:37.065Z,10.45
2024-03-05T17:53:07.464Z,10.43
2024-03-05T17:55:34.644Z,10.40
2024-03-05T17:58:03.336Z,10.39
2024-03-05T18:00:31.018Z,10.38
2024-03-05T18:03:00.118Z,10.30
2024-03-05T18:05:27.658Z,10.28
2024-03-05T18:07:56.217Z,10.27
2024-03-05T18:10:24.787Z,10.28
2024-03-05T18:12:54.316Z,10.23
2024-03-05T18:15:21.988Z,10.21
2024-03-05T18:17:50.876Z,10.20
2024-03-05T18:20:22.192Z,10.19
2024-03-05T18:22:50.550Z,10.16
2024-03-05T18:25:18.470Z,10.15
2024-03-05T18:27:50.358Z,10.13
2024-03-05T18:30:18.020Z,10.06
2024-03-05T18:32:47.086Z,10.02
2024-03-05T18:35:15.230Z,9.97
2024-03-05T18:37:42.458Z,9.92
2024-03-05T18:40:10.146Z,9.93
2024-03-05T18:42:38.086Z,9.90
2024-03-05T18:45:05.977Z,9.87
2024-03-05T18:47:33.369Z,9.84
2024-03-05T18:50:01.635Z,9.78
2024-03-05T18:52:29.050Z,9.75
2024-03-05T18:54:55.995Z,9.72
2024-03-05T18:57:24.355Z,9.67
2024-03-05T18:59:51.208Z,9.65
2024-03-05T19:02:18.048Z,9.61
2024-03-05T19:04:45.447Z,9.60
2024-03-05T19:07:12.742Z,9.58
2024-03-05T19:10:06.024Z,9.56
2024-03-05T19:12:36.421Z,9.55
2024-03-05T19:15:04.568Z,9.54
2024-03-05T19:17:37.931Z,9.49
2024-03-05T19:20:05.958Z,9.48
2024-03-05T19:22:33.167Z,9.45
2024-03-05T19:25:00.477Z,9.41
2024-03-05T19:27:28.366Z,9.38
2024-03-05T19:29:57.021Z,9.33
2024-03-05T19:32:24.153Z,9.31
2024-03-05T19:34:51.260Z,9.30
2024-03-05T19:37:20.482Z,9.29
2024-03-05T19:39:47.922Z,9.28
2024-03-05T19:42:14.912Z,9.26
2024-03-05T19:44:41.797Z,9.27
2024-03-05T19:47:09.128Z,9.25
2024-03-05T19:49:37.305Z,9.24
2024-03-05T19:52:04.576Z,9.23
2024-03-05T19:54:32.397Z,9.22
2024-03-05T19:56:59.814Z,9.22
2024-03-05T19:59:26.853Z,9.21
2024-03-05T20:02:20.005Z,9.20
2024-03-05T20:04:51.027Z,9.18
2024-03-05T20:07:17.958Z,9.19
2024-03-05T20:09:47.493Z,9.18
2024-03-05T20:12:16.467Z,9.18
2024-03-05T20:14:47.079Z,9.18
2024-03-05T20:17:14.812Z,9.15
2024-03-05T20:19:42.762Z,9.15
2024-03-05T20:22:09.743Z,9.13
2024-03-05T20:24:37.888Z,9.11
2024-03-05T20:27:05.664Z,9.09
2024-03-05T20:29:34.120Z,9.10
2024-03-05T20:34:55.354Z,9.06
2024-03-05T20:37:23.422Z,9.06
2024-03-05T20:39:52.579Z,9.07
2024-03-05T20:42:21.742Z,9.04
2024-03-05T20:44:51.950Z,9.04
2024-03-05T20:47:20.229Z,9.01
2024-03-05T20:49:47.643Z,8.98
2024-03-05T20:52:14.961Z,8.98
2024-03-05T20:54:43.477Z,8.95
2024-03-05T20:57:11.027Z,8.94
2024-03-05T20:59:39.214Z,8.92
2024-03-05T21:02:06.730Z,8.88
2024-03-05T21:04:34.231Z,8.85
2024-03-05T21:09:53.197Z,8.78
2024-03-05T21:12:20.959Z,8.74
2024-03-05T21:14:48.296Z,8.67
2024-03-05T21:17:16.055Z,8.65
2024-03-05T21:19:42.901Z,8.60
2024-03-05T21:22:10.124Z,8.60
2024-03-05T21:24:37.470Z,8.53
2024-03-05T21:27:16.649Z,8.52
2024-03-05T21:29:48.616Z,8.48
2024-03-05T21:32:15.686Z,8.45
2024-03-05T21:34:43.626Z,8.42
2024-03-05T21:37:12.167Z,8.38
2024-03-05T21:39:38.901Z,8.33
2024-03-05T21:42:06.509Z,8.28
2024-03-05T21:44:41.330Z,8.24
2024-03-05T21:47:09.841Z,8.18
2024-03-05T21:49:36.742Z,8.08
2024-03-05T21:52:03.661Z,8.06
2024-03-05T21:54:30.603Z,8.08
2024-03-05T21:56:58.195Z,8.08
2024-03-05T21:59:25.138Z,8.10
2024-03-05T22:01:52.147Z,8.10
2024-03-05T22:04:19.219Z,8.08
2024-03-05T22:06:47.371Z,8.01
2024-03-05T22:09:14.528Z,7.87
2024-03-05T22:11:45.167Z,7.71
2024-03-05T22:14:12.453Z,7.57
2024-03-05T22:17:04.531Z,7.53
2024-03-05T22:19:31.581Z,7.41
2024-03-05T22:21:58.303Z,7.35
2024-03-05T22:24:27.209Z,7.28
2024-03-05T22:26:54.041Z,7.26
2024-03-05T22:29:20.863Z,7.20
2024-03-05T22:31:52.423Z,7.11
2024-03-05T22:34:19.198Z,7.03
2024-03-05T22:36:47.603Z,6.96
2024-03-05T22:39:15.324Z,6.96
2024-03-05T22:41:45.700Z,6.93
2024-03-05T22:44:12.599Z,6.94
2024-03-05T22:46:40.405Z,6.98
2024-03-05T22:49:07.255Z,6.95
2024-03-05T22:51:34.056Z,6.96
2024-03-05T22:54:01.512Z,6.98
2024-03-05T22:56:30.041Z,6.84
2024-03-05T22:58:56.827Z,6.69
2024-03-05T23:01:24.737Z,6.61
2024-03-05T23:03:51.584Z,6.54
2024-03-05T23:06:43.107Z,6.53
2024-03-05T23:09:10.044Z,6.48
2024-03-05T23:11:36.884Z,6.45
2024-03-05T23:14:30.511Z,6.41
2024-03-05T23:16:57.703Z,6.42
2024-03-05T23:19:24.514Z,6.40
2024-03-05T23:21:52.272Z,6.38
2024-03-05T23:24:19.014Z,6.40
2024-03-05T23:26:46.684Z,6.43
2024-03-05T23:29:15.474Z,6.49
2024-03-05T23:31:42.934Z,6.57
2024-03-05T23:34:12.162Z,6.55
2024-03-05T23:36:40.440Z,6.53
2024-03-05T23:39:07.209Z,6.51
2024-03-05T23:41:36.882Z,6.55
2024-03-05T23:44:05.616Z,6.60
2024-03-05T23:46:32.597Z,6.63
2024-03-05T23:48:59.408Z,6.62
2024-03-05T23:51:28.318Z,6.54
2024-03-05T23:53:58.807Z,6.43
2024-03-05T23:56:25.550Z,6.32
2024-03-05T23:58:55.996Z,6.24
